首页
METAR-TAF:

METAR-TAF

机场 :

Khorramabad, 伊朗

纬度: 33-26-11N, 经度: 048-17-09E, 海拔: 1155米

当前天气观测

该预报发布于48分钟前的08:00 UTC
风速4节,风向西转西北
温度 33°C
湿度 15%
气压 1016 hPa
能見度: 9000

METAR: OICK 220800Z 30004KT 9000 NSC 33/03 Q1016

时间: 12:18 (08:48 UTC)


TAF: 丢失

超过4000个机场的气象观测和天气预报(METAR&TAF报告)。

可查询的气象台以黄色和红色小点在地图上表示。

将鼠标移到小点上方,可查看气象台名称。

然后点击查看天气观测和预报。

如需切换地图:点击带黑十字的绿色按钮放大地图;点击带横线的绿色按钮缩小地图;或者点击绿色箭头查看邻近地区的地图。


METAR-TAF: